Airfield :
LOGIN :

Register | Disclaimer

   EN    FR    IT 

 










Legend :    VFR   Marginal VFR   IFR   Intensive IFR   Very Intensive IFR
Visi :
Ceiling :
>= 8 km
>= 3000ft
5 to 8 km
1000 to 3000 ft
1500m to 5 km
500 to 1000 ft
800 to 1500m
200 to 500 ft
< 800m
< 200 ft
Symbols :   Thunderstorms  Fog  Heavy snow  Heavy precipitations  Wind > 20 kt
SIGMETs :     Misc.  Thunderstorms  Icing  Turbulence  Mountain Waves  Volcanic Ashes






- Airport Elevation : 121 ft
- IATA code : HUY


EGNJ - Humberside

CURRENT METAR :
  • 270920Z 35029G40KT 6000 -RA SCT008 BKN020 06/03 Q0995

EXPIRED METARs :
  • 270850Z 01028G41KT 6000 SCT008 BKN020 06/03 Q0995
  • 270820Z 01027G39KT 6000 SCT008 BKN020 06/03 Q0994 RERA
  • 270750Z 03024G38KT 350V060 3500 RA SCT008 BKN015 05/04 Q0994
  • 270720Z AUTO 01019G29KT 9999 // SCT019/// BKN028/// BKN042/// 05/03 Q0993 RERA
  • 270650Z AUTO 34008KT 9999 FEW033/// SCT048/// 05/02 Q0992
  • 270620Z AUTO 34009KT 9999 // SCT026/// BKN040/// 05/03 Q0991

TAF AMD TAF EGNJ
Valid from the 27 at 09:00 until the 27 at 18:00 UTC


270901Z 2709/2718 02025G35KT 9999 SCT020
TEMPO 2709/2718 6000 RA BKN009
PROB30
TEMPO 2709/2718 2000 SHRASN BKN005
BECMG 2710/2713 35018G35KT
ATIS : +44 1652 682 020



MET'MAP, your aeronautical weather chart ! - Copyright ORBIFLY December 2007 - Disclaimer

ORBIFLY MET'MAP TEAM :

Programming & Development : Alexandra Zaïnal
Concept & original design : Baudouin d'Aumeries
Assistance for programming : Marc-Olivier Méhu
Technical & hardware support : Manuel Goepfert

Contact : metmap@orbifly.com




SOURCES & CREDITS :

   NOAA